createdAt,value
2023-02-24T05:53:55.081Z,97376.50
2023-02-24T05:56:24.667Z,97367.08
2023-02-24T05:59:01.148Z,97369.80
2023-02-24T06:01:29.700Z,97369.65
2023-02-24T06:04:05.059Z,97364.92
2023-02-24T06:06:39.594Z,97359.49
2023-02-24T06:09:15.108Z,97348.95
2023-02-24T06:11:42.773Z,97341.77
2023-02-24T06:14:11.598Z,97342.46
2023-02-24T06:16:41.610Z,97343.27
2023-02-24T06:19:17.878Z,97338.79
2023-02-24T06:22:10.958Z,97340.98
2023-02-24T06:24:38.834Z,97342.33
2023-02-24T06:27:16.926Z,97334.61
2023-02-24T06:29:51.876Z,97329.72
2023-02-24T06:32:20.496Z,97331.02
2023-02-24T06:34:47.389Z,97328.94
2023-02-24T06:37:15.624Z,97329.90
2023-02-24T06:39:44.205Z,97330.01
2023-02-24T06:42:12.036Z,97333.75
2023-02-24T06:44:40.995Z,97305.48
2023-02-24T06:47:12.676Z,97303.36
2023-02-24T06:49:41.071Z,97305.06
2023-02-24T06:52:17.730Z,97308.58
2023-02-24T06:54:47.768Z,97306.35
2023-02-24T06:57:14.899Z,97303.95
2023-02-24T06:59:45.688Z,97304.48
2023-02-24T07:02:12.274Z,97302.10
2023-02-24T07:04:45.180Z,97304.50
2023-02-24T07:07:16.603Z,97306.31
2023-02-24T07:09:44.622Z,97307.48
2023-02-24T07:12:22.611Z,97314.16
2023-02-24T07:14:49.968Z,97319.92
2023-02-24T07:17:18.399Z,97319.14
2023-02-24T07:19:47.608Z,97320.79
2023-02-24T07:22:16.289Z,97323.77
2023-02-24T07:24:47.245Z,97325.55
2023-02-24T07:27:21.412Z,97327.41
2023-02-24T09:28:47.991Z,97282.86
2023-02-24T09:31:18.420Z,97282.96
2023-02-24T09:33:50.451Z,97276.65
2023-02-24T09:36:28.313Z,97275.95
2023-02-24T09:55:16.198Z,97304.23
2023-02-24T09:58:08.470Z,97302.08
2023-02-24T10:00:43.287Z,97303.64
2023-02-24T10:03:24.224Z,97303.00
2023-02-24T10:06:11.382Z,97305.89
2023-02-24T10:08:42.050Z,97305.62
2023-02-24T10:11:11.413Z,97301.42
2023-02-24T10:13:49.124Z,97301.00
2023-02-24T10:16:24.366Z,97302.98
2023-02-24T10:19:17.320Z,97306.10
2023-02-24T10:22:08.808Z,97306.19
2023-02-24T10:24:47.089Z,97301.94
2023-02-24T10:27:23.206Z,97302.27
2023-02-24T10:30:18.999Z,97299.83
2023-02-24T10:32:52.568Z,97298.61
2023-02-24T10:35:25.196Z,97293.71
2023-02-24T10:37:52.813Z,97288.61
2023-02-24T10:40:42.856Z,97284.77
2023-02-24T10:43:10.174Z,97287.35
2023-02-24T10:45:44.422Z,97278.36
2023-02-24T10:48:41.319Z,97280.55
2023-02-24T11:33:41.947Z,97226.63
2023-02-24T11:36:19.841Z,97223.98
2023-02-24T11:39:15.452Z,97221.71
2023-02-24T11:41:46.858Z,97218.16
2023-02-24T11:44:30.113Z,97207.84
2023-02-24T11:47:17.777Z,97208.85
2023-02-24T11:49:52.679Z,97210.51
2023-02-24T11:52:33.278Z,97200.48
2023-02-24T11:55:04.806Z,97199.90
2023-02-24T11:57:41.471Z,97206.25
2023-02-24T12:00:19.478Z,97205.98
2023-02-24T12:03:17.669Z,97209.20
2023-02-24T12:05:49.605Z,97206.80
2023-02-24T12:08:34.585Z,97203.34
2023-02-24T12:11:13.381Z,97197.08
2023-02-24T12:14:04.293Z,97192.88
2023-02-24T12:16:39.830Z,97191.76
2023-02-24T12:19:27.435Z,97191.34
2023-02-24T12:22:05.494Z,97196.83
2023-02-24T12:24:35.854Z,97200.84
2023-02-24T12:27:14.885Z,97191.89
2023-02-24T12:30:05.676Z,97201.00
2023-02-24T12:32:59.461Z,97199.95
2023-02-24T12:35:44.116Z,97197.59
2023-02-24T12:38:40.533Z,97193.20
2023-02-24T12:41:54.973Z,97190.46
2023-02-24T12:44:50.691Z,97199.02
2023-02-24T12:47:31.829Z,97192.89
2023-02-24T12:50:11.800Z,97190.81
2023-02-24T12:53:07.582Z,97181.43
2023-02-24T12:55:46.018Z,97175.30
2023-02-24T12:58:20.116Z,97171.98
2023-02-24T13:01:11.574Z,97160.95
2023-02-24T13:04:06.263Z,97153.49
2023-02-24T13:06:55.434Z,97152.81
2023-02-24T13:45:34.373Z,97192.90
2023-02-24T13:48:26.111Z,97200.47
2023-02-24T13:51:07.865Z,97201.42
2023-02-24T13:53:58.122Z,97212.09
2023-02-24T13:56:49.452Z,97214.59
2023-02-24T14:00:01.197Z,97216.62
2023-02-24T14:13:29.355Z,97232.57
2023-02-24T14:15:58.197Z,97231.35
2023-02-24T14:18:27.276Z,97226.61
2023-02-24T14:20:56.308Z,97223.67
2023-02-24T14:23:26.945Z,97219.45
2023-02-24T14:25:56.729Z,97218.34
2023-02-24T14:28:30.370Z,97216.73
2023-02-24T14:31:00.107Z,97213.21
2023-02-24T14:33:33.615Z,97210.17
2023-02-24T14:36:01.232Z,97208.09
2023-02-24T14:38:39.541Z,97208.94
2023-02-24T14:41:35.969Z,97219.41
2023-02-24T14:44:41.025Z,97218.23
2023-02-24T14:47:13.617Z,97219.77
2023-02-24T14:49:51.201Z,97216.40
2023-02-24T14:52:39.007Z,97211.50
2023-02-24T14:55:25.363Z,97207.59
2023-02-24T14:57:57.833Z,97208.92
2023-02-24T15:00:42.730Z,97200.09
2023-02-24T15:03:23.077Z,97199.19
2023-02-24T15:05:53.998Z,97196.52
2023-02-24T15:08:43.426Z,97185.36
2023-02-24T15:11:20.680Z,97179.49
2023-02-24T15:13:54.402Z,97178.91
2023-02-24T15:16:26.569Z,97173.42
2023-02-24T15:18:58.449Z,97168.36
2023-02-24T15:21:32.825Z,97160.22
2023-02-24T15:24:30.352Z,97152.48
2023-02-24T15:27:01.873Z,97146.59
2023-02-24T15:29:31.601Z,97142.21
2023-02-24T15:32:00.267Z,97139.71
2023-02-24T15:34:34.436Z,97136.36
2023-02-24T15:37:22.659Z,97134.43
2023-02-24T15:39:51.809Z,97134.59
2023-02-24T15:42:27.727Z,97130.84
2023-02-24T15:45:01.195Z,97131.65
2023-02-24T15:47:43.178Z,97134.41
2023-02-24T15:50:11.627Z,97139.47
2023-02-24T15:52:44.269Z,97138.39
2023-02-24T15:55:21.258Z,97145.53
2023-02-24T15:57:56.976Z,97145.94
2023-02-24T16:00:24.104Z,97147.00
2023-02-24T16:02:50.514Z,97138.27
2023-02-24T16:05:22.728Z,97134.33
2023-02-24T16:07:54.085Z,97132.69
2023-02-24T16:10:27.582Z,97143.98
2023-02-24T16:13:00.180Z,97141.42
2023-02-24T16:15:30.218Z,97143.52
2023-02-24T16:17:57.455Z,97138.98
2023-02-24T16:20:26.794Z,97144.58
2023-02-24T16:23:04.978Z,97146.06
2023-02-24T16:25:41.716Z,97155.70
2023-02-24T16:28:16.904Z,97163.25
2023-02-24T16:30:45.958Z,97171.04
2023-02-24T16:33:17.044Z,97176.11
2023-02-24T16:35:45.027Z,97181.08
2023-02-24T16:38:18.821Z,97179.63
2023-02-24T16:40:47.561Z,97183.34
2023-02-24T16:43:16.684Z,97191.97
2023-02-24T16:45:45.354Z,97199.89
2023-02-24T16:48:23.750Z,97199.13
2023-02-24T16:50:53.010Z,97201.16
2023-02-24T16:53:24.833Z,97198.69
2023-02-24T16:55:51.932Z,97199.66
2023-02-24T16:58:19.164Z,97202.97
2023-02-24T17:00:49.137Z,97205.36
2023-02-24T17:03:20.066Z,97210.21
2023-02-24T17:05:47.118Z,97209.85
2023-02-24T17:08:15.297Z,97209.57
2023-02-24T17:10:43.210Z,97214.89
2023-02-24T17:13:15.904Z,97220.05
2023-02-24T17:15:42.257Z,97225.02
2023-02-24T17:18:11.813Z,97287.61
2023-02-24T17:20:39.889Z,97380.47
2023-02-24T17:23:06.697Z,97386.30
2023-02-24T17:25:33.269Z,97388.37
2023-02-24T17:28:00.410Z,97399.16
2023-02-24T17:30:33.126Z,97411.17
2023-02-24T17:33:00.927Z,97420.96
2023-02-24T17:35:29.997Z,97424.58
2023-02-24T17:37:56.552Z,97427.38
2023-02-24T17:40:23.544Z,97428.64
2023-02-24T17:42:50.704Z,97435.83
2023-02-24T17:45:20.278Z,97441.48
2023-02-24T17:47:46.863Z,97448.32
2023-02-24T17:50:13.757Z,97454.48
2023-02-24T17:52:43.867Z,97453.40
2023-02-24T17:55:12.696Z,97452.52
2023-02-24T17:57:42.608Z,97453.04
2023-02-24T18:00:12.453Z,97441.66
2023-02-24T18:02:39.630Z,97438.41
2023-02-24T18:05:11.242Z,97442.98
2023-02-24T18:07:37.783Z,97447.44
2023-02-24T18:10:05.285Z,97444.52
2023-02-24T18:12:31.990Z,97440.91
2023-02-24T18:15:08.235Z,97435.42
2023-02-24T18:17:36.753Z,97432.34
2023-02-24T18:20:05.056Z,97420.95
2023-02-24T18:22:31.561Z,97414.19
2023-02-24T18:24:58.742Z,97403.00
2023-02-24T18:27:25.316Z,97400.48
2023-02-24T18:29:53.048Z,97391.86
2023-02-24T18:32:22.832Z,97384.94
2023-02-24T18:34:52.199Z,97380.33
2023-02-24T18:37:19.526Z,97376.36
2023-02-24T18:39:46.175Z,97372.63
2023-02-24T18:42:12.723Z,97372.15
2023-02-24T18:44:39.413Z,97373.30
2023-02-24T18:47:08.819Z,97374.02
2023-02-24T18:49:36.632Z,97374.86
2023-02-24T18:52:04.605Z,97374.38
2023-02-24T18:54:33.141Z,97366.70
2023-02-24T18:56:59.698Z,97364.45
2023-02-24T18:59:26.206Z,97363.70
2023-02-24T19:01:53.578Z,97358.05
2023-02-24T19:04:22.750Z,97351.42
2023-02-24T19:06:51.722Z,97347.09
2023-02-24T19:09:23.257Z,97339.48
2023-02-24T19:11:51.401Z,97338.91
2023-02-24T19:14:18.008Z,97342.67
2023-02-24T19:16:44.939Z,97345.00
2023-02-24T19:19:13.506Z,97341.55
2023-02-24T19:21:39.966Z,97336.32
2023-02-24T19:24:10.410Z,97329.39
2023-02-24T19:26:39.281Z,97323.80
2023-02-24T19:29:05.704Z,97317.02
2023-02-24T19:31:32.970Z,97307.23
2023-02-24T19:34:06.199Z,97300.89
2023-02-24T19:36:36.476Z,97290.35
2023-02-24T19:39:04.355Z,97281.46
2023-02-24T19:41:30.858Z,97269.65
2023-02-24T19:44:00.346Z,97262.48
2023-02-24T19:46:28.329Z,97251.92
2023-02-24T19:48:57.248Z,97252.30
2023-02-24T19:51:24.613Z,97250.11
2023-02-24T19:53:53.863Z,97248.94
2023-02-24T19:56:29.165Z,97257.35
2023-02-24T19:58:57.473Z,97264.90
2023-02-24T20:01:25.050Z,97274.59
2023-02-24T20:03:58.363Z,97274.23
2023-02-24T20:06:26.354Z,97272.99
2023-02-24T20:08:53.975Z,97270.50
2023-02-24T20:11:23.994Z,97263.28
2023-02-24T20:13:52.378Z,97266.32
2023-02-24T20:16:21.912Z,97265.21
2023-02-24T20:18:53.110Z,97272.20
2023-02-24T20:21:22.421Z,97271.56
2023-02-24T20:23:51.859Z,97269.13
2023-02-24T20:26:19.597Z,97269.27
2023-02-24T20:28:49.797Z,97263.40
2023-02-24T20:31:18.839Z,97254.09
2023-02-24T20:33:51.588Z,97241.87
2023-02-24T20:36:25.925Z,97232.04
2023-02-24T20:38:53.667Z,97220.04
2023-02-24T20:41:21.247Z,97215.11
2023-02-24T20:43:48.359Z,97210.59
2023-02-24T20:46:23.306Z,97206.83
2023-02-24T20:48:51.633Z,97205.81
2023-02-24T20:51:20.868Z,97214.89
2023-02-24T20:53:57.445Z,97218.61
2023-02-24T20:56:27.771Z,97225.73
2023-02-24T20:59:03.360Z,97228.02
2023-02-24T21:01:31.252Z,97227.79
2023-02-24T21:03:58.358Z,97231.09
2023-02-24T21:06:25.845Z,97230.95
2023-02-24T21:08:52.912Z,97236.59
2023-02-24T21:11:20.313Z,97238.10
2023-02-24T21:13:48.393Z,97235.44
2023-02-24T21:16:16.584Z,97231.55
2023-02-24T21:18:47.541Z,97226.35
2023-02-24T21:21:15.433Z,97225.33
2023-02-24T21:23:46.833Z,97204.16
2023-02-24T21:26:14.080Z,97206.02
2023-02-24T21:28:43.540Z,97212.36
2023-02-24T21:31:16.080Z,97208.41
2023-02-24T21:33:43.102Z,97207.77
2023-02-24T21:36:14.040Z,97207.72
2023-02-24T21:38:47.594Z,97213.73
2023-02-24T21:41:20.776Z,97214.85
2023-02-24T21:43:51.819Z,97212.95
2023-02-24T21:46:18.679Z,97209.43
2023-02-24T21:48:45.325Z,97203.27
2023-02-24T21:51:13.236Z,97198.69
2023-02-24T21:53:43.037Z,97201.27
2023-02-24T21:56:15.787Z,97194.94
2023-02-24T21:58:58.304Z,97191.23
2023-02-24T22:04:59.940Z,97184.46
2023-02-24T22:07:44.438Z,97169.75
2023-02-24T22:10:24.221Z,97160.49
2023-02-24T22:12:55.391Z,97151.43
2023-02-24T22:15:22.225Z,97144.84
2023-02-24T22:20:37.389Z,97120.20
2023-02-24T22:23:03.778Z,97113.48
2023-02-24T22:25:30.531Z,97104.51
2023-02-24T22:27:56.981Z,97095.71
2023-02-24T22:30:23.646Z,97083.84
2023-02-24T22:32:50.245Z,97075.70
2023-02-24T22:35:17.011Z,97070.54
2023-02-24T22:37:43.674Z,97058.09
2023-02-24T22:40:10.775Z,97049.65
2023-02-24T22:42:37.289Z,97052.36
2023-02-24T22:45:04.388Z,97040.27
2023-02-24T22:47:30.914Z,97032.52
2023-02-24T22:49:57.421Z,97030.80
2023-02-24T22:52:25.697Z,97025.31
2023-02-24T22:54:52.217Z,97019.84
2023-02-24T22:57:18.807Z,97016.48
2023-02-24T22:59:45.654Z,97009.52
2023-02-24T23:02:12.259Z,97005.98
2023-02-24T23:04:38.776Z,97008.00
2023-02-24T23:07:05.396Z,97002.20
2023-02-24T23:09:32.096Z,97001.93
2023-02-24T23:11:58.668Z,96992.89
2023-02-24T23:14:26.160Z,96993.10
2023-02-24T23:16:54.915Z,96994.84
2023-02-24T23:19:22.394Z,96990.89
2023-02-24T23:21:52.521Z,96993.59
2023-02-24T23:24:20.966Z,96986.31
2023-02-24T23:26:53.363Z,96982.95
2023-02-24T23:29:21.394Z,96984.05
2023-02-24T23:31:48.084Z,96980.91
2023-02-24T23:34:18.238Z,96976.17
2023-02-24T23:36:46.300Z,96973.05
2023-02-24T23:39:15.050Z,96972.02
2023-02-24T23:41:41.781Z,96971.38
2023-02-24T23:44:08.235Z,96971.42
2023-02-24T23:46:37.307Z,96962.17
2023-02-24T23:49:04.562Z,96956.39
2023-02-24T23:51:47.192Z,96951.27
2023-02-24T23:54:17.754Z,96941.98
2023-02-24T23:56:46.896Z,96932.20
2023-02-24T23:59:13.978Z,96928.23
